sensor_id;sensor_type;location;lat;lon;timestamp;P1;durP1;ratioP1;P2;durP2;ratioP2
73599;SDS011;61877;48.246;9.220;2022-09-20T00:00:25;7.57;;;3.80;;
73599;SDS011;61877;48.246;9.220;2022-09-20T00:02:52;8.33;;;3.97;;
73599;SDS011;61877;48.246;9.220;2022-09-20T00:05:17;7.70;;;3.80;;
73599;SDS011;61877;48.246;9.220;2022-09-20T00:07:43;7.13;;;3.50;;
73599;SDS011;61877;48.246;9.220;2022-09-20T00:10:08;8.60;;;3.60;;
73599;SDS011;61877;48.246;9.220;2022-09-20T00:12:34;8.18;;;3.80;;
73599;SDS011;61877;48.246;9.220;2022-09-20T00:14:59;8.00;;;3.30;;
73599;SDS011;61877;48.246;9.220;2022-09-20T00:17:25;8.73;;;3.73;;
73599;SDS011;61877;48.246;9.220;2022-09-20T00:19:51;8.77;;;3.97;;
73599;SDS011;61877;48.246;9.220;2022-09-20T00:22:17;9.90;;;4.10;;
73599;SDS011;61877;48.246;9.220;2022-09-20T00:24:42;10.00;;;3.70;;
73599;SDS011;61877;48.246;9.220;2022-09-20T00:27:08;8.17;;;3.93;;
73599;SDS011;61877;48.246;9.220;2022-09-20T00:29:36;8.48;;;3.95;;
73599;SDS011;61877;48.246;9.220;2022-09-20T00:32:01;8.90;;;3.73;;
73599;SDS011;61877;48.246;9.220;2022-09-20T00:34:27;10.07;;;3.70;;
73599;SDS011;61877;48.246;9.220;2022-09-20T00:36:54;7.80;;;3.73;;
73599;SDS011;61877;48.246;9.220;2022-09-20T00:39:22;9.35;;;4.10;;
73599;SDS011;61877;48.246;9.220;2022-09-20T00:41:47;9.82;;;3.80;;
73599;SDS011;61877;48.246;9.220;2022-09-20T00:47:07;8.73;;;3.72;;
73599;SDS011;61877;48.246;9.220;2022-09-20T00:49:36;7.70;;;3.50;;
73599;SDS011;61877;48.246;9.220;2022-09-20T00:52:06;7.80;;;3.28;;
73599;SDS011;61877;48.246;9.220;2022-09-20T00:54:32;8.95;;;4.00;;
73599;SDS011;61877;48.246;9.220;2022-09-20T00:56:58;8.60;;;3.40;;
73599;SDS011;61877;48.246;9.220;2022-09-20T00:59:24;7.40;;;3.70;;
73599;SDS011;61877;48.246;9.220;2022-09-20T01:01:52;8.43;;;3.75;;
73599;SDS011;61877;48.246;9.220;2022-09-20T01:04:22;7.60;;;3.65;;
73599;SDS011;61877;48.246;9.220;2022-09-20T01:06:52;8.80;;;3.80;;
73599;SDS011;61877;48.246;9.220;2022-09-20T01:09:24;7.93;;;3.95;;
73599;SDS011;61877;48.246;9.220;2022-09-20T01:11:49;8.40;;;3.80;;
73599;SDS011;61877;48.246;9.220;2022-09-20T01:14:20;9.13;;;4.22;;
73599;SDS011;61877;48.246;9.220;2022-09-20T01:16:48;8.00;;;4.18;;
73599;SDS011;61877;48.246;9.220;2022-09-20T01:19:20;8.27;;;3.77;;
73599;SDS011;61877;48.246;9.220;2022-09-20T01:21:53;8.40;;;3.60;;
73599;SDS011;61877;48.246;9.220;2022-09-20T01:24:24;8.40;;;3.90;;
73599;SDS011;61877;48.246;9.220;2022-09-20T01:27:03;9.65;;;3.88;;
73599;SDS011;61877;48.246;9.220;2022-09-20T01:32:34;7.20;;;3.38;;
73599;SDS011;61877;48.246;9.220;2022-09-20T01:35:06;8.52;;;3.90;;
73599;SDS011;61877;48.246;9.220;2022-09-20T01:37:35;9.48;;;4.07;;
73599;SDS011;61877;48.246;9.220;2022-09-20T01:40:12;7.88;;;4.00;;
73599;SDS011;61877;48.246;9.220;2022-09-20T01:42:49;9.03;;;3.90;;
73599;SDS011;61877;48.246;9.220;2022-09-20T01:45:24;8.60;;;3.80;;
73599;SDS011;61877;48.246;9.220;2022-09-20T01:47:54;8.60;;;4.03;;
73599;SDS011;61877;48.246;9.220;2022-09-20T01:50:28;8.18;;;3.90;;
73599;SDS011;61877;48.246;9.220;2022-09-20T01:53:18;8.18;;;3.85;;
73599;SDS011;61877;48.246;9.220;2022-09-20T02:05:29;9.40;;;4.07;;
73599;SDS011;61877;48.246;9.220;2022-09-20T02:08:08;9.80;;;4.20;;
73599;SDS011;61877;48.246;9.220;2022-09-20T02:10:52;8.70;;;3.97;;
73599;SDS011;61877;48.246;9.220;2022-09-20T02:13:28;9.43;;;4.10;;
73599;SDS011;61877;48.246;9.220;2022-09-20T02:19:10;8.77;;;3.92;;
73599;SDS011;61877;48.246;9.220;2022-09-20T02:21:54;9.10;;;4.00;;
73599;SDS011;61877;48.246;9.220;2022-09-20T02:24:34;9.40;;;4.27;;
73599;SDS011;61877;48.246;9.220;2022-09-20T02:27:10;9.57;;;4.28;;
73599;SDS011;61877;48.246;9.220;2022-09-20T02:29:47;10.40;;;3.92;;
73599;SDS011;61877;48.246;9.220;2022-09-20T02:32:29;8.52;;;4.07;;
73599;SDS011;61877;48.246;9.220;2022-09-20T02:35:16;8.98;;;4.18;;
73599;SDS011;61877;48.246;9.220;2022-09-20T02:37:58;7.73;;;3.83;;
73599;SDS011;61877;48.246;9.220;2022-09-20T02:40:34;10.52;;;4.18;;
73599;SDS011;61877;48.246;9.220;2022-09-20T02:43:13;9.75;;;4.30;;
73599;SDS011;61877;48.246;9.220;2022-09-20T02:45:46;9.85;;;3.92;;
73599;SDS011;61877;48.246;9.220;2022-09-20T02:48:21;9.30;;;4.32;;
73599;SDS011;61877;48.246;9.220;2022-09-20T02:50:53;9.13;;;4.27;;
73599;SDS011;61877;48.246;9.220;2022-09-20T02:53:31;9.15;;;4.25;;
73599;SDS011;61877;48.246;9.220;2022-09-20T02:56:05;8.75;;;3.90;;
73599;SDS011;61877;48.246;9.220;2022-09-20T02:58:41;8.30;;;3.72;;
73599;SDS011;61877;48.246;9.220;2022-09-20T03:01:18;8.93;;;3.92;;
73599;SDS011;61877;48.246;9.220;2022-09-20T03:03:56;10.00;;;3.60;;
73599;SDS011;61877;48.246;9.220;2022-09-20T03:06:36;9.55;;;3.90;;
73599;SDS011;61877;48.246;9.220;2022-09-20T03:09:10;9.88;;;4.50;;
73599;SDS011;61877;48.246;9.220;2022-09-20T03:11:42;8.95;;;4.32;;
73599;SDS011;61877;48.246;9.220;2022-09-20T03:14:17;8.75;;;4.25;;
73599;SDS011;61877;48.246;9.220;2022-09-20T03:16:47;9.00;;;4.50;;
73599;SDS011;61877;48.246;9.220;2022-09-20T03:19:25;9.00;;;4.40;;
73599;SDS011;61877;48.246;9.220;2022-09-20T03:22:04;10.68;;;4.63;;
73599;SDS011;61877;48.246;9.220;2022-09-20T03:24:42;8.52;;;4.40;;
73599;SDS011;61877;48.246;9.220;2022-09-20T03:27:25;9.85;;;4.10;;
73599;SDS011;61877;48.246;9.220;2022-09-20T03:30:00;9.00;;;4.13;;
73599;SDS011;61877;48.246;9.220;2022-09-20T03:32:45;9.45;;;4.57;;
73599;SDS011;61877;48.246;9.220;2022-09-20T03:35:23;9.18;;;4.28;;
73599;SDS011;61877;48.246;9.220;2022-09-20T03:38:09;8.25;;;3.97;;
73599;SDS011;61877;48.246;9.220;2022-09-20T03:40:57;8.02;;;3.97;;
73599;SDS011;61877;48.246;9.220;2022-09-20T03:43:37;8.70;;;4.30;;
73599;SDS011;61877;48.246;9.220;2022-09-20T03:46:19;8.43;;;4.15;;
73599;SDS011;61877;48.246;9.220;2022-09-20T03:48:53;10.40;;;4.35;;
73599;SDS011;61877;48.246;9.220;2022-09-20T03:51:27;9.07;;;4.07;;
73599;SDS011;61877;48.246;9.220;2022-09-20T03:54:03;9.63;;;4.28;;
73599;SDS011;61877;48.246;9.220;2022-09-20T03:57:04;8.97;;;4.10;;
73599;SDS011;61877;48.246;9.220;2022-09-20T03:59:49;9.02;;;4.20;;
73599;SDS011;61877;48.246;9.220;2022-09-20T04:02:37;8.93;;;4.00;;
73599;SDS011;61877;48.246;9.220;2022-09-20T04:05:11;9.10;;;4.15;;
73599;SDS011;61877;48.246;9.220;2022-09-20T04:07:40;9.25;;;4.20;;
73599;SDS011;61877;48.246;9.220;2022-09-20T04:10:22;9.13;;;4.33;;
73599;SDS011;61877;48.246;9.220;2022-09-20T04:12:58;8.52;;;3.95;;
73599;SDS011;61877;48.246;9.220;2022-09-20T04:15:34;8.55;;;4.18;;
73599;SDS011;61877;48.246;9.220;2022-09-20T04:18:11;8.98;;;4.00;;
73599;SDS011;61877;48.246;9.220;2022-09-20T04:20:48;9.15;;;4.25;;
73599;SDS011;61877;48.246;9.220;2022-09-20T04:23:23;10.03;;;4.07;;
73599;SDS011;61877;48.246;9.220;2022-09-20T04:25:54;10.15;;;4.50;;
73599;SDS011;61877;48.246;9.220;2022-09-20T04:28:25;9.23;;;4.57;;
73599;SDS011;61877;48.246;9.220;2022-09-20T04:30:58;10.32;;;4.80;;
73599;SDS011;61877;48.246;9.220;2022-09-20T04:33:30;9.13;;;4.55;;
73599;SDS011;61877;48.246;9.220;2022-09-20T04:36:03;11.27;;;4.47;;
73599;SDS011;61877;48.246;9.220;2022-09-20T04:38:39;9.32;;;4.28;;
73599;SDS011;61877;48.246;9.220;2022-09-20T04:41:17;8.65;;;4.03;;
73599;SDS011;61877;48.246;9.220;2022-09-20T04:47:01;9.40;;;4.18;;
73599;SDS011;61877;48.246;9.220;2022-09-20T04:50:00;10.13;;;4.03;;
73599;SDS011;61877;48.246;9.220;2022-09-20T04:52:47;10.02;;;4.10;;
73599;SDS011;61877;48.246;9.220;2022-09-20T04:55:43;10.68;;;4.50;;
73599;SDS011;61877;48.246;9.220;2022-09-20T05:01:11;10.48;;;4.55;;
73599;SDS011;61877;48.246;9.220;2022-09-20T05:04:08;10.30;;;4.80;;
73599;SDS011;61877;48.246;9.220;2022-09-20T05:10:08;9.95;;;4.75;;
73599;SDS011;61877;48.246;9.220;2022-09-20T05:12:57;11.68;;;4.78;;
73599;SDS011;61877;48.246;9.220;2022-09-20T05:15:37;9.40;;;4.45;;
73599;SDS011;61877;48.246;9.220;2022-09-20T05:18:19;8.70;;;4.20;;
73599;SDS011;61877;48.246;9.220;2022-09-20T05:21:12;10.23;;;4.65;;
73599;SDS011;61877;48.246;9.220;2022-09-20T05:24:19;11.43;;;5.03;;
73599;SDS011;61877;48.246;9.220;2022-09-20T05:27:00;10.70;;;4.65;;
73599;SDS011;61877;48.246;9.220;2022-09-20T05:29:38;12.48;;;4.90;;
73599;SDS011;61877;48.246;9.220;2022-09-20T05:32:13;9.00;;;4.00;;
73599;SDS011;61877;48.246;9.220;2022-09-20T05:34:47;9.70;;;4.70;;
73599;SDS011;61877;48.246;9.220;2022-09-20T05:37:25;8.60;;;4.30;;
73599;SDS011;61877;48.246;9.220;2022-09-20T05:40:01;8.75;;;3.90;;
73599;SDS011;61877;48.246;9.220;2022-09-20T05:42:33;8.73;;;4.25;;
73599;SDS011;61877;48.246;9.220;2022-09-20T05:45:12;9.10;;;3.80;;
73599;SDS011;61877;48.246;9.220;2022-09-20T05:47:58;9.05;;;3.95;;
73599;SDS011;61877;48.246;9.220;2022-09-20T05:50:36;9.48;;;4.22;;
73599;SDS011;61877;48.246;9.220;2022-09-20T05:53:18;10.75;;;4.55;;
73599;SDS011;61877;48.246;9.220;2022-09-20T05:56:04;9.50;;;4.40;;
73599;SDS011;61877;48.246;9.220;2022-09-20T05:58:43;10.10;;;4.73;;
73599;SDS011;61877;48.246;9.220;2022-09-20T06:01:21;10.63;;;5.35;;
73599;SDS011;61877;48.246;9.220;2022-09-20T06:03:50;10.35;;;5.13;;
73599;SDS011;61877;48.246;9.220;2022-09-20T06:06:20;10.70;;;5.07;;
73599;SDS011;61877;48.246;9.220;2022-09-20T06:08:58;11.45;;;5.32;;
73599;SDS011;61877;48.246;9.220;2022-09-20T06:11:39;10.33;;;4.70;;
73599;SDS011;61877;48.246;9.220;2022-09-20T06:14:15;10.25;;;4.57;;
73599;SDS011;61877;48.246;9.220;2022-09-20T06:16:52;10.48;;;4.70;;
73599;SDS011;61877;48.246;9.220;2022-09-20T06:19:28;11.35;;;4.70;;
73599;SDS011;61877;48.246;9.220;2022-09-20T06:22:02;9.40;;;4.65;;
73599;SDS011;61877;48.246;9.220;2022-09-20T06:24:38;10.70;;;4.97;;
73599;SDS011;61877;48.246;9.220;2022-09-20T06:27:09;12.93;;;5.43;;
73599;SDS011;61877;48.246;9.220;2022-09-20T06:29:38;12.80;;;6.03;;
73599;SDS011;61877;48.246;9.220;2022-09-20T06:32:07;12.57;;;6.18;;
73599;SDS011;61877;48.246;9.220;2022-09-20T06:34:33;13.10;;;6.17;;
73599;SDS011;61877;48.246;9.220;2022-09-20T06:36:59;11.83;;;5.57;;
73599;SDS011;61877;48.246;9.220;2022-09-20T06:39:46;10.93;;;5.30;;
73599;SDS011;61877;48.246;9.220;2022-09-20T06:42:18;11.48;;;5.85;;
73599;SDS011;61877;48.246;9.220;2022-09-20T06:44:43;12.17;;;5.47;;
73599;SDS011;61877;48.246;9.220;2022-09-20T06:47:09;12.40;;;5.20;;
73599;SDS011;61877;48.246;9.220;2022-09-20T06:49:35;9.82;;;5.10;;
73599;SDS011;61877;48.246;9.220;2022-09-20T06:52:00;11.93;;;5.43;;
73599;SDS011;61877;48.246;9.220;2022-09-20T06:54:28;11.53;;;5.50;;
73599;SDS011;61877;48.246;9.220;2022-09-20T06:56:55;11.30;;;5.30;;
73599;SDS011;61877;48.246;9.220;2022-09-20T06:59:21;11.00;;;5.00;;
73599;SDS011;61877;48.246;9.220;2022-09-20T07:01:47;11.60;;;5.50;;
73599;SDS011;61877;48.246;9.220;2022-09-20T07:04:12;12.83;;;5.77;;
73599;SDS011;61877;48.246;9.220;2022-09-20T07:06:38;10.90;;;5.53;;
73599;SDS011;61877;48.246;9.220;2022-09-20T07:09:03;13.47;;;6.47;;
73599;SDS011;61877;48.246;9.220;2022-09-20T07:11:29;12.38;;;6.10;;
73599;SDS011;61877;48.246;9.220;2022-09-20T07:13:56;12.23;;;6.53;;
73599;SDS011;61877;48.246;9.220;2022-09-20T07:16:21;13.05;;;6.05;;
73599;SDS011;61877;48.246;9.220;2022-09-20T07:18:47;13.10;;;6.77;;
73599;SDS011;61877;48.246;9.220;2022-09-20T07:21:13;12.88;;;6.25;;
73599;SDS011;61877;48.246;9.220;2022-09-20T07:23:39;13.07;;;6.17;;
73599;SDS011;61877;48.246;9.220;2022-09-20T07:26:05;11.45;;;5.97;;
73599;SDS011;61877;48.246;9.220;2022-09-20T07:28:32;12.23;;;6.17;;
73599;SDS011;61877;48.246;9.220;2022-09-20T07:31:00;12.80;;;6.20;;
73599;SDS011;61877;48.246;9.220;2022-09-20T07:33:25;12.93;;;6.32;;
73599;SDS011;61877;48.246;9.220;2022-09-20T07:35:51;12.70;;;5.93;;
73599;SDS011;61877;48.246;9.220;2022-09-20T07:38:17;13.10;;;6.47;;
73599;SDS011;61877;48.246;9.220;2022-09-20T07:40:43;11.40;;;5.47;;
73599;SDS011;61877;48.246;9.220;2022-09-20T07:43:08;12.88;;;5.75;;
73599;SDS011;61877;48.246;9.220;2022-09-20T07:45:35;14.80;;;5.97;;
73599;SDS011;61877;48.246;9.220;2022-09-20T07:48:02;12.80;;;6.22;;
73599;SDS011;61877;48.246;9.220;2022-09-20T07:50:27;15.57;;;6.55;;
73599;SDS011;61877;48.246;9.220;2022-09-20T07:52:54;11.97;;;5.97;;
73599;SDS011;61877;48.246;9.220;2022-09-20T07:55:19;12.82;;;6.30;;
73599;SDS011;61877;48.246;9.220;2022-09-20T07:57:45;11.80;;;5.07;;
73599;SDS011;61877;48.246;9.220;2022-09-20T08:00:10;12.97;;;6.20;;
73599;SDS011;61877;48.246;9.220;2022-09-20T08:02:36;10.02;;;4.07;;
73599;SDS011;61877;48.246;9.220;2022-09-20T08:05:03;8.47;;;3.90;;
73599;SDS011;61877;48.246;9.220;2022-09-20T08:07:29;8.82;;;3.90;;
73599;SDS011;61877;48.246;9.220;2022-09-20T08:09:54;10.03;;;4.50;;
73599;SDS011;61877;48.246;9.220;2022-09-20T08:12:20;8.60;;;4.00;;
73599;SDS011;61877;48.246;9.220;2022-09-20T08:14:45;10.10;;;4.38;;
73599;SDS011;61877;48.246;9.220;2022-09-20T08:17:11;12.03;;;4.80;;
73599;SDS011;61877;48.246;9.220;2022-09-20T08:19:36;10.40;;;4.70;;
73599;SDS011;61877;48.246;9.220;2022-09-20T08:22:03;10.23;;;4.43;;
73599;SDS011;61877;48.246;9.220;2022-09-20T08:24:29;10.70;;;4.20;;
73599;SDS011;61877;48.246;9.220;2022-09-20T08:26:54;10.27;;;4.23;;
73599;SDS011;61877;48.246;9.220;2022-09-20T08:29:20;10.30;;;4.17;;
73599;SDS011;61877;48.246;9.220;2022-09-20T08:31:45;9.97;;;3.80;;
73599;SDS011;61877;48.246;9.220;2022-09-20T08:34:11;10.82;;;3.80;;
73599;SDS011;61877;48.246;9.220;2022-09-20T08:36:38;10.47;;;3.97;;
73599;SDS011;61877;48.246;9.220;2022-09-20T08:39:06;10.77;;;4.35;;
73599;SDS011;61877;48.246;9.220;2022-09-20T08:41:33;9.27;;;3.97;;
73599;SDS011;61877;48.246;9.220;2022-09-20T08:44:03;9.35;;;3.83;;
73599;SDS011;61877;48.246;9.220;2022-09-20T08:46:38;9.68;;;3.80;;
73599;SDS011;61877;48.246;9.220;2022-09-20T08:49:06;8.60;;;3.67;;
73599;SDS011;61877;48.246;9.220;2022-09-20T08:51:37;9.73;;;3.80;;
73599;SDS011;61877;48.246;9.220;2022-09-20T08:54:05;8.52;;;3.72;;
73599;SDS011;61877;48.246;9.220;2022-09-20T08:56:36;9.75;;;3.58;;
73599;SDS011;61877;48.246;9.220;2022-09-20T08:59:25;8.95;;;3.42;;
73599;SDS011;61877;48.246;9.220;2022-09-20T09:01:50;10.87;;;3.50;;
73599;SDS011;61877;48.246;9.220;2022-09-20T09:04:18;9.70;;;3.35;;
73599;SDS011;61877;48.246;9.220;2022-09-20T09:06:45;9.10;;;2.97;;
73599;SDS011;61877;48.246;9.220;2022-09-20T09:09:15;9.07;;;2.90;;
73599;SDS011;61877;48.246;9.220;2022-09-20T09:11:43;8.57;;;2.88;;
73599;SDS011;61877;48.246;9.220;2022-09-20T09:14:10;7.23;;;2.60;;
73599;SDS011;61877;48.246;9.220;2022-09-20T09:16:37;8.57;;;2.50;;
73599;SDS011;61877;48.246;9.220;2022-09-20T09:21:49;7.40;;;2.75;;
73599;SDS011;61877;48.246;9.220;2022-09-20T09:24:16;6.77;;;2.80;;
73599;SDS011;61877;48.246;9.220;2022-09-20T09:26:48;8.10;;;2.50;;
73599;SDS011;61877;48.246;9.220;2022-09-20T09:29:28;8.18;;;2.00;;
73599;SDS011;61877;48.246;9.220;2022-09-20T09:31:54;8.63;;;2.50;;
73599;SDS011;61877;48.246;9.220;2022-09-20T09:34:23;7.10;;;2.67;;
73599;SDS011;61877;48.246;9.220;2022-09-20T09:36:50;6.57;;;2.17;;
73599;SDS011;61877;48.246;9.220;2022-09-20T09:39:21;7.07;;;2.08;;
73599;SDS011;61877;48.246;9.220;2022-09-20T09:41:48;7.22;;;2.20;;
73599;SDS011;61877;48.246;9.220;2022-09-20T09:44:21;7.67;;;2.40;;
73599;SDS011;61877;48.246;9.220;2022-09-20T09:46:48;6.50;;;2.00;;
73599;SDS011;61877;48.246;9.220;2022-09-20T09:52:17;7.20;;;2.10;;
73599;SDS011;61877;48.246;9.220;2022-09-20T09:54:45;7.65;;;2.10;;
73599;SDS011;61877;48.246;9.220;2022-09-20T09:57:19;6.95;;;2.10;;
73599;SDS011;61877;48.246;9.220;2022-09-20T09:59:59;6.28;;;1.70;;
73599;SDS011;61877;48.246;9.220;2022-09-20T10:02:34;8.25;;;2.40;;
73599;SDS011;61877;48.246;9.220;2022-09-20T10:05:13;7.23;;;2.40;;
73599;SDS011;61877;48.246;9.220;2022-09-20T10:07:48;6.15;;;2.20;;
73599;SDS011;61877;48.246;9.220;2022-09-20T10:10:25;6.50;;;2.20;;
73599;SDS011;61877;48.246;9.220;2022-09-20T10:12:58;7.32;;;2.13;;
73599;SDS011;61877;48.246;9.220;2022-09-20T10:15:36;6.20;;;2.00;;
73599;SDS011;61877;48.246;9.220;2022-09-20T10:18:14;7.07;;;2.20;;
73599;SDS011;61877;48.246;9.220;2022-09-20T10:20:52;6.55;;;2.20;;
73599;SDS011;61877;48.246;9.220;2022-09-20T10:26:35;5.97;;;2.17;;
73599;SDS011;61877;48.246;9.220;2022-09-20T10:29:12;8.85;;;2.25;;
73599;SDS011;61877;48.246;9.220;2022-09-20T10:31:51;6.63;;;1.87;;
73599;SDS011;61877;48.246;9.220;2022-09-20T10:34:32;6.25;;;1.88;;
73599;SDS011;61877;48.246;9.220;2022-09-20T10:37:12;6.65;;;1.92;;
73599;SDS011;61877;48.246;9.220;2022-09-20T10:39:44;7.55;;;2.30;;
73599;SDS011;61877;48.246;9.220;2022-09-20T10:42:21;6.18;;;2.08;;
73599;SDS011;61877;48.246;9.220;2022-09-20T10:45:01;7.90;;;2.20;;
73599;SDS011;61877;48.246;9.220;2022-09-20T10:47:54;7.07;;;2.20;;
73599;SDS011;61877;48.246;9.220;2022-09-20T10:50:26;5.30;;;1.80;;
73599;SDS011;61877;48.246;9.220;2022-09-20T10:53:06;7.85;;;2.45;;
73599;SDS011;61877;48.246;9.220;2022-09-20T10:55:48;6.82;;;2.30;;
73599;SDS011;61877;48.246;9.220;2022-09-20T10:58:28;7.13;;;2.30;;
73599;SDS011;61877;48.246;9.220;2022-09-20T11:01:15;7.35;;;1.90;;
73599;SDS011;61877;48.246;9.220;2022-09-20T11:07:03;5.70;;;1.88;;
73599;SDS011;61877;48.246;9.220;2022-09-20T11:09:35;5.63;;;1.73;;
73599;SDS011;61877;48.246;9.220;2022-09-20T11:12:05;5.77;;;1.60;;
73599;SDS011;61877;48.246;9.220;2022-09-20T11:14:39;7.18;;;1.80;;
73599;SDS011;61877;48.246;9.220;2022-09-20T11:17:11;6.60;;;1.60;;
73599;SDS011;61877;48.246;9.220;2022-09-20T11:19:45;6.10;;;1.50;;
73599;SDS011;61877;48.246;9.220;2022-09-20T11:22:20;5.70;;;1.75;;
73599;SDS011;61877;48.246;9.220;2022-09-20T11:24:49;6.87;;;2.17;;
73599;SDS011;61877;48.246;9.220;2022-09-20T11:27:21;5.78;;;2.00;;
73599;SDS011;61877;48.246;9.220;2022-09-20T11:29:52;6.38;;;2.05;;
73599;SDS011;61877;48.246;9.220;2022-09-20T11:32:23;6.20;;;2.17;;
73599;SDS011;61877;48.246;9.220;2022-09-20T11:34:52;8.05;;;2.15;;
73599;SDS011;61877;48.246;9.220;2022-09-20T11:37:21;6.33;;;2.10;;
73599;SDS011;61877;48.246;9.220;2022-09-20T11:39:50;6.47;;;2.00;;
73599;SDS011;61877;48.246;9.220;2022-09-20T11:42:19;5.53;;;1.77;;
73599;SDS011;61877;48.246;9.220;2022-09-20T11:44:47;5.43;;;1.70;;
73599;SDS011;61877;48.246;9.220;2022-09-20T11:47:18;6.72;;;1.90;;
73599;SDS011;61877;48.246;9.220;2022-09-20T11:49:52;6.20;;;2.10;;
73599;SDS011;61877;48.246;9.220;2022-09-20T11:52:42;5.97;;;1.88;;
73599;SDS011;61877;48.246;9.220;2022-09-20T11:55:26;6.25;;;2.05;;
73599;SDS011;61877;48.246;9.220;2022-09-20T11:58:04;7.65;;;2.40;;
73599;SDS011;61877;48.246;9.220;2022-09-20T12:00:31;7.50;;;2.00;;
73599;SDS011;61877;48.246;9.220;2022-09-20T12:03:00;7.47;;;2.03;;
73599;SDS011;61877;48.246;9.220;2022-09-20T12:05:29;6.60;;;2.20;;
73599;SDS011;61877;48.246;9.220;2022-09-20T12:07:57;7.97;;;2.30;;
73599;SDS011;61877;48.246;9.220;2022-09-20T12:10:25;7.57;;;2.00;;
73599;SDS011;61877;48.246;9.220;2022-09-20T12:12:56;8.27;;;2.53;;
73599;SDS011;61877;48.246;9.220;2022-09-20T12:15:25;7.10;;;2.40;;
73599;SDS011;61877;48.246;9.220;2022-09-20T12:21:07;7.57;;;2.17;;
73599;SDS011;61877;48.246;9.220;2022-09-20T12:26:44;7.78;;;1.92;;
73599;SDS011;61877;48.246;9.220;2022-09-20T12:38:29;8.15;;;2.30;;
73599;SDS011;61877;48.246;9.220;2022-09-20T12:41:19;6.55;;;2.05;;
73599;SDS011;61877;48.246;9.220;2022-09-20T12:43:53;5.77;;;2.00;;
73599;SDS011;61877;48.246;9.220;2022-09-20T12:46:28;8.50;;;2.10;;
73599;SDS011;61877;48.246;9.220;2022-09-20T12:52:08;5.65;;;1.77;;
73599;SDS011;61877;48.246;9.220;2022-09-20T12:54:53;7.07;;;1.90;;
73599;SDS011;61877;48.246;9.220;2022-09-20T12:57:25;6.37;;;2.27;;
73599;SDS011;61877;48.246;9.220;2022-09-20T12:59:54;6.55;;;2.08;;
73599;SDS011;61877;48.246;9.220;2022-09-20T13:05:34;6.93;;;2.15;;
73599;SDS011;61877;48.246;9.220;2022-09-20T13:08:01;6.38;;;2.00;;
73599;SDS011;61877;48.246;9.220;2022-09-20T13:10:41;7.73;;;2.00;;
73599;SDS011;61877;48.246;9.220;2022-09-20T13:13:12;6.28;;;1.90;;
73599;SDS011;61877;48.246;9.220;2022-09-20T13:15:47;6.10;;;2.05;;
73599;SDS011;61877;48.246;9.220;2022-09-20T13:18:17;6.57;;;1.90;;
73599;SDS011;61877;48.246;9.220;2022-09-20T13:20:50;6.90;;;1.80;;
73599;SDS011;61877;48.246;9.220;2022-09-20T13:23:27;5.80;;;1.80;;
73599;SDS011;61877;48.246;9.220;2022-09-20T13:25:56;7.28;;;2.10;;
73599;SDS011;61877;48.246;9.220;2022-09-20T13:28:27;5.43;;;1.75;;
73599;SDS011;61877;48.246;9.220;2022-09-20T13:33:57;6.18;;;1.98;;
73599;SDS011;61877;48.246;9.220;2022-09-20T13:36:37;6.20;;;1.80;;
73599;SDS011;61877;48.246;9.220;2022-09-20T13:39:03;6.28;;;1.90;;
73599;SDS011;61877;48.246;9.220;2022-09-20T13:41:32;7.15;;;1.90;;
73599;SDS011;61877;48.246;9.220;2022-09-20T13:43:58;6.38;;;1.90;;
73599;SDS011;61877;48.246;9.220;2022-09-20T13:46:27;6.60;;;2.08;;
73599;SDS011;61877;48.246;9.220;2022-09-20T13:48:57;5.57;;;1.60;;
73599;SDS011;61877;48.246;9.220;2022-09-20T13:51:33;6.20;;;1.48;;
73599;SDS011;61877;48.246;9.220;2022-09-20T13:56:51;6.38;;;1.90;;
73599;SDS011;61877;48.246;9.220;2022-09-20T13:59:21;6.22;;;1.90;;
73599;SDS011;61877;48.246;9.220;2022-09-20T14:01:49;6.87;;;1.60;;
73599;SDS011;61877;48.246;9.220;2022-09-20T14:04:22;5.90;;;1.50;;
73599;SDS011;61877;48.246;9.220;2022-09-20T14:06:55;5.82;;;1.50;;
73599;SDS011;61877;48.246;9.220;2022-09-20T14:09:31;5.88;;;1.73;;
73599;SDS011;61877;48.246;9.220;2022-09-20T14:18:45;6.10;;;1.40;;
73599;SDS011;61877;48.246;9.220;2022-09-20T14:21:26;5.50;;;1.80;;
73599;SDS011;61877;48.246;9.220;2022-09-20T14:24:02;5.78;;;1.60;;
73599;SDS011;61877;48.246;9.220;2022-09-20T14:27:43;5.75;;;1.40;;
73599;SDS011;61877;48.246;9.220;2022-09-20T14:33:19;6.38;;;1.30;;
73599;SDS011;61877;48.246;9.220;2022-09-20T14:36:33;5.40;;;1.70;;
73599;SDS011;61877;48.246;9.220;2022-09-20T14:39:04;6.32;;;1.70;;
73599;SDS011;61877;48.246;9.220;2022-09-20T14:41:56;5.38;;;1.60;;
73599;SDS011;61877;48.246;9.220;2022-09-20T14:47:25;5.70;;;1.75;;
73599;SDS011;61877;48.246;9.220;2022-09-20T14:49:53;5.33;;;1.63;;
73599;SDS011;61877;48.246;9.220;2022-09-20T14:52:31;6.15;;;1.40;;
73599;SDS011;61877;48.246;9.220;2022-09-20T14:55:01;6.47;;;2.00;;
73599;SDS011;61877;48.246;9.220;2022-09-20T14:57:35;7.55;;;1.60;;
73599;SDS011;61877;48.246;9.220;2022-09-20T15:00:04;5.93;;;1.60;;
73599;SDS011;61877;48.246;9.220;2022-09-20T15:02:34;5.35;;;1.50;;
73599;SDS011;61877;48.246;9.220;2022-09-20T15:05:01;6.27;;;1.70;;
73599;SDS011;61877;48.246;9.220;2022-09-20T15:07:27;5.45;;;1.77;;
73599;SDS011;61877;48.246;9.220;2022-09-20T15:09:52;6.33;;;1.60;;
73599;SDS011;61877;48.246;9.220;2022-09-20T15:12:18;6.30;;;1.60;;
73599;SDS011;61877;48.246;9.220;2022-09-20T15:14:45;5.45;;;1.65;;
73599;SDS011;61877;48.246;9.220;2022-09-20T15:17:12;5.40;;;1.70;;
73599;SDS011;61877;48.246;9.220;2022-09-20T15:19:39;6.03;;;1.70;;
73599;SDS011;61877;48.246;9.220;2022-09-20T15:22:06;5.83;;;2.13;;
73599;SDS011;61877;48.246;9.220;2022-09-20T15:24:32;6.05;;;1.80;;
73599;SDS011;61877;48.246;9.220;2022-09-20T15:26:58;6.00;;;2.00;;
73599;SDS011;61877;48.246;9.220;2022-09-20T15:29:23;6.10;;;2.00;;
73599;SDS011;61877;48.246;9.220;2022-09-20T15:31:48;6.17;;;1.63;;
73599;SDS011;61877;48.246;9.220;2022-09-20T15:34:17;6.17;;;1.97;;
73599;SDS011;61877;48.246;9.220;2022-09-20T15:36:43;6.97;;;1.65;;
73599;SDS011;61877;48.246;9.220;2022-09-20T15:39:10;5.80;;;1.63;;
73599;SDS011;61877;48.246;9.220;2022-09-20T15:41:35;6.68;;;1.80;;
73599;SDS011;61877;48.246;9.220;2022-09-20T15:44:01;6.50;;;1.70;;
73599;SDS011;61877;48.246;9.220;2022-09-20T15:46:27;5.60;;;1.63;;
73599;SDS011;61877;48.246;9.220;2022-09-20T15:48:53;6.95;;;1.85;;
73599;SDS011;61877;48.246;9.220;2022-09-20T15:51:18;6.50;;;2.00;;
73599;SDS011;61877;48.246;9.220;2022-09-20T15:53:44;6.78;;;1.60;;
73599;SDS011;61877;48.246;9.220;2022-09-20T15:56:16;5.90;;;1.67;;
73599;SDS011;61877;48.246;9.220;2022-09-20T15:58:43;6.00;;;1.80;;
73599;SDS011;61877;48.246;9.220;2022-09-20T16:01:09;5.68;;;1.80;;
73599;SDS011;61877;48.246;9.220;2022-09-20T16:03:35;4.95;;;1.40;;
73599;SDS011;61877;48.246;9.220;2022-09-20T16:06:01;6.20;;;1.70;;
73599;SDS011;61877;48.246;9.220;2022-09-20T16:08:29;7.55;;;1.60;;
73599;SDS011;61877;48.246;9.220;2022-09-20T16:10:55;5.65;;;1.70;;
73599;SDS011;61877;48.246;9.220;2022-09-20T16:13:22;6.13;;;1.77;;
73599;SDS011;61877;48.246;9.220;2022-09-20T16:15:51;5.93;;;1.80;;
73599;SDS011;61877;48.246;9.220;2022-09-20T16:18:17;5.53;;;1.70;;
73599;SDS011;61877;48.246;9.220;2022-09-20T16:20:43;6.10;;;2.00;;
73599;SDS011;61877;48.246;9.220;2022-09-20T16:23:08;5.83;;;1.70;;
73599;SDS011;61877;48.246;9.220;2022-09-20T16:25:34;6.05;;;2.00;;
73599;SDS011;61877;48.246;9.220;2022-09-20T16:28:01;6.87;;;2.30;;
73599;SDS011;61877;48.246;9.220;2022-09-20T16:30:27;6.28;;;2.20;;
73599;SDS011;61877;48.246;9.220;2022-09-20T16:32:53;5.80;;;1.80;;
73599;SDS011;61877;48.246;9.220;2022-09-20T16:35:18;5.90;;;2.00;;
73599;SDS011;61877;48.246;9.220;2022-09-20T16:37:44;7.43;;;2.30;;